createdAt,value
2018-07-19T00:01:05.849Z,20.35
2018-07-19T00:04:08.028Z,20.25
2018-07-19T00:07:10.023Z,20.37
2018-07-19T00:10:12.112Z,20.44
2018-07-19T00:13:14.300Z,20.47
2018-07-19T00:16:16.340Z,20.38
2018-07-19T00:19:18.336Z,20.41
2018-07-19T00:22:21.484Z,20.42
2018-07-19T00:25:23.634Z,20.46
2018-07-19T00:28:25.735Z,20.24
2018-07-19T00:31:27.836Z,20.18
2018-07-19T00:34:29.990Z,20.16
2018-07-19T00:37:32.087Z,20.17
2018-07-19T00:40:34.152Z,20.13
2018-07-19T00:43:36.557Z,19.99
2018-07-19T00:46:38.708Z,20.03
2018-07-19T00:49:40.767Z,19.96
2018-07-19T00:52:42.727Z,19.99
2018-07-19T00:55:44.894Z,19.78
2018-07-19T00:58:46.956Z,19.68
2018-07-19T01:01:49.134Z,19.50
2018-07-19T01:04:51.244Z,19.54
2018-07-19T01:07:54.698Z,19.57
2018-07-19T01:10:56.878Z,19.31
2018-07-19T01:13:58.929Z,19.31
2018-07-19T01:17:01.024Z,19.28
2018-07-19T01:20:03.334Z,19.18
2018-07-19T01:23:05.350Z,19.22
2018-07-19T01:26:07.427Z,19.17
2018-07-19T01:29:10.721Z,19.12
2018-07-19T01:32:12.796Z,19.12
2018-07-19T01:35:14.861Z,19.25
2018-07-19T01:38:17.025Z,19.18
2018-07-19T01:41:30.499Z,19.21
2018-07-19T01:44:32.544Z,19.24
2018-07-19T01:47:34.740Z,19.18
2018-07-19T01:50:36.892Z,19.11
2018-07-19T01:53:38.934Z,18.83
2018-07-19T01:56:42.002Z,18.92
2018-07-19T01:59:44.774Z,18.94
2018-07-19T02:02:46.897Z,18.90
2018-07-19T02:05:48.962Z,18.87
2018-07-19T02:08:52.057Z,18.91
2018-07-19T02:11:55.258Z,18.79
2018-07-19T02:14:57.326Z,18.74
2018-07-19T02:18:01.454Z,18.69
2018-07-19T02:21:03.513Z,18.69
2018-07-19T02:24:05.595Z,18.76
2018-07-19T02:27:07.580Z,18.64
2018-07-19T02:30:09.750Z,18.57
2018-07-19T02:33:11.788Z,18.59
2018-07-19T02:36:13.845Z,18.57
2018-07-19T02:39:15.945Z,18.48
2018-07-19T02:42:18.020Z,18.46
2018-07-19T02:45:20.069Z,18.36
2018-07-19T02:48:22.236Z,18.29
2018-07-19T02:51:24.843Z,18.28
2018-07-19T02:54:26.903Z,18.16
2018-07-19T02:57:29.320Z,18.20
2018-07-19T03:00:31.454Z,18.09
2018-07-19T03:03:33.671Z,18.01
2018-07-19T03:06:35.868Z,17.98
2018-07-19T03:09:37.956Z,17.90
2018-07-19T03:12:41.064Z,17.90
2018-07-19T03:15:43.175Z,17.86
2018-07-19T03:18:45.520Z,17.85
2018-07-19T03:21:47.672Z,17.73
2018-07-19T03:24:49.724Z,17.77
2018-07-19T03:27:51.883Z,17.82
2018-07-19T03:30:55.394Z,17.72
2018-07-19T03:33:57.364Z,17.77
2018-07-19T03:36:59.472Z,17.76
2018-07-19T03:40:01.648Z,17.84
2018-07-19T03:43:03.654Z,17.91
2018-07-19T03:46:05.752Z,17.92
2018-07-19T03:49:07.845Z,17.79
2018-07-19T03:52:09.885Z,17.80
2018-07-19T03:55:15.557Z,17.65
2018-07-19T03:58:17.600Z,17.54
2018-07-19T04:01:19.692Z,17.54
2018-07-19T04:04:21.656Z,17.65
2018-07-19T04:07:24.966Z,17.61
2018-07-19T04:10:27.026Z,17.60
2018-07-19T04:13:29.158Z,17.70
2018-07-19T04:16:31.256Z,17.77
2018-07-19T04:19:33.250Z,17.81
2018-07-19T04:22:36.482Z,17.71
2018-07-19T04:25:38.620Z,17.54
2018-07-19T04:28:40.795Z,17.62
2018-07-19T04:31:42.897Z,17.50
2018-07-19T04:34:46.066Z,17.55
2018-07-19T04:37:48.212Z,17.66
2018-07-19T04:40:51.497Z,17.79
2018-07-19T04:43:54.711Z,17.86
2018-07-19T04:46:58.756Z,17.94
2018-07-19T04:50:00.777Z,18.01
2018-07-19T04:53:02.847Z,18.12
2018-07-19T04:56:04.999Z,18.15
2018-07-19T04:59:07.094Z,18.23
2018-07-19T05:02:09.192Z,18.34
2018-07-19T05:05:11.344Z,18.35
2018-07-19T05:08:13.430Z,18.50
2018-07-19T05:11:15.540Z,18.60
2018-07-19T05:14:17.654Z,18.70
2018-07-19T05:17:19.687Z,18.81
2018-07-19T05:20:21.820Z,18.92
2018-07-19T05:23:24.937Z,19.03
2018-07-19T05:26:27.152Z,19.13
2018-07-19T05:29:29.172Z,19.24
2018-07-19T05:32:31.343Z,19.31
2018-07-19T05:35:33.464Z,19.37
2018-07-19T05:38:35.434Z,19.48
2018-07-19T05:41:37.763Z,19.55
2018-07-19T05:44:39.893Z,19.62
2018-07-19T05:47:41.844Z,19.77
2018-07-19T05:50:43.967Z,19.92
2018-07-19T05:53:46.131Z,20.04
2018-07-19T05:56:48.465Z,20.10
2018-07-19T05:59:50.544Z,20.16
2018-07-19T06:02:52.911Z,20.03
2018-07-19T06:05:55.702Z,20.15
2018-07-19T06:08:57.892Z,20.30
2018-07-19T06:12:00.035Z,20.38
2018-07-19T06:15:05.126Z,20.37
2018-07-19T06:18:07.116Z,20.43
2018-07-19T06:21:09.198Z,20.43
2018-07-19T06:24:11.379Z,20.65
2018-07-19T06:27:13.756Z,20.78
2018-07-19T06:30:15.949Z,20.91
2018-07-19T06:33:18.005Z,21.07
2018-07-19T06:36:20.176Z,21.13
2018-07-19T06:39:22.225Z,21.21
2018-07-19T06:42:24.390Z,21.41
2018-07-19T06:45:26.512Z,21.46
2018-07-19T06:48:28.541Z,21.54
2018-07-19T06:51:30.719Z,21.62
2018-07-19T06:54:32.782Z,21.73
2018-07-19T06:57:36.223Z,21.84
2018-07-19T07:00:38.392Z,21.95
2018-07-19T07:03:40.552Z,22.08
2018-07-19T07:06:42.552Z,22.29
2018-07-19T07:09:44.697Z,22.48
2018-07-19T07:12:46.752Z,22.52
2018-07-19T07:15:48.827Z,22.56
2018-07-19T07:18:51.087Z,22.80
2018-07-19T07:21:53.223Z,22.96
2018-07-19T07:24:56.395Z,22.94
2018-07-19T07:27:58.426Z,23.01
2018-07-19T07:31:00.612Z,23.17
2018-07-19T07:34:02.799Z,23.37
2018-07-19T07:37:05.103Z,23.58
2018-07-19T07:40:07.395Z,23.62
2018-07-19T07:43:10.181Z,23.67
2018-07-19T07:46:12.272Z,23.61
2018-07-19T07:49:14.254Z,23.80
2018-07-19T07:52:16.307Z,23.64
2018-07-19T07:55:18.403Z,23.59
2018-07-19T07:58:20.375Z,23.68
2018-07-19T08:01:22.428Z,23.89
2018-07-19T08:04:24.621Z,24.27
2018-07-19T08:07:27.807Z,24.36
2018-07-19T08:10:30.034Z,24.42
2018-07-19T08:13:32.115Z,24.70
2018-07-19T08:16:34.198Z,24.94
2018-07-19T08:19:36.229Z,24.94
2018-07-19T08:22:38.219Z,25.20
2018-07-19T08:25:40.373Z,25.46
2018-07-19T08:28:42.452Z,25.79
2018-07-19T08:31:44.431Z,25.92
2018-07-19T08:34:47.710Z,26.01
2018-07-19T08:37:49.837Z,26.00
2018-07-19T08:40:53.948Z,25.98
2018-07-19T08:43:56.433Z,26.12
2018-07-19T08:46:58.473Z,26.04
2018-07-19T08:50:00.560Z,26.07
2018-07-19T08:53:02.738Z,26.29
2018-07-19T08:56:04.788Z,26.51
2018-07-19T08:59:06.857Z,26.61
2018-07-19T09:02:08.967Z,26.58
2018-07-19T09:05:11.056Z,26.42
2018-07-19T09:08:13.172Z,26.53
2018-07-19T09:11:15.727Z,26.66
2018-07-19T09:14:17.895Z,26.78
2018-07-19T09:17:20.005Z,26.43
2018-07-19T09:20:22.087Z,26.56
2018-07-19T09:23:24.120Z,26.73
2018-07-19T09:26:27.068Z,27.01
2018-07-19T09:29:28.998Z,27.18
2018-07-19T09:32:32.149Z,27.19
2018-07-19T09:35:34.259Z,27.37
2018-07-19T09:38:36.377Z,27.21
2018-07-19T09:41:38.543Z,27.61
2018-07-19T09:44:40.655Z,27.87
2018-07-19T09:47:44.853Z,28.04
2018-07-19T09:50:47.100Z,28.19
2018-07-19T09:53:49.239Z,28.17
2018-07-19T09:56:51.488Z,27.37
2018-07-19T09:59:54.575Z,27.43
2018-07-19T10:02:57.575Z,28.05
2018-07-19T10:05:59.994Z,28.32
2018-07-19T10:09:02.051Z,28.33
2018-07-19T10:12:04.125Z,27.95
2018-07-19T10:15:06.197Z,27.63
2018-07-19T10:18:08.353Z,27.93
2018-07-19T10:21:11.617Z,28.17
2018-07-19T10:24:16.563Z,28.42
2018-07-19T10:27:18.664Z,28.35
2018-07-19T10:30:21.823Z,28.70
2018-07-19T10:33:24.171Z,28.65
2018-07-19T10:36:26.895Z,28.71
2018-07-19T10:39:29.128Z,28.88
2018-07-19T10:42:31.272Z,28.38
2018-07-19T10:45:33.352Z,28.61
2018-07-19T10:48:36.574Z,28.48
2018-07-19T10:51:38.793Z,28.43
2018-07-19T10:54:40.845Z,28.65
2018-07-19T10:57:42.950Z,28.95
2018-07-19T11:00:45.057Z,29.15
2018-07-19T11:03:47.157Z,29.28
2018-07-19T11:06:49.265Z,29.28
2018-07-19T11:09:51.371Z,29.21
2018-07-19T11:12:53.548Z,29.29
2018-07-19T11:15:56.343Z,29.35
2018-07-19T11:18:58.334Z,29.25
2018-07-19T11:22:00.346Z,29.38
2018-07-19T11:25:02.446Z,29.21
2018-07-19T11:28:04.583Z,29.15
2018-07-19T11:31:06.936Z,29.32
2018-07-19T11:34:09.180Z,29.24
2018-07-19T11:37:11.344Z,28.93
2018-07-19T11:40:13.667Z,29.27
2018-07-19T11:43:16.159Z,28.99
2018-07-19T11:46:18.422Z,28.97
2018-07-19T11:49:20.692Z,29.20
2018-07-19T11:52:22.851Z,29.46
2018-07-19T11:55:25.975Z,29.40
2018-07-19T11:58:28.185Z,29.71
2018-07-19T12:01:30.439Z,29.91
2018-07-19T12:04:32.488Z,29.48
2018-07-19T12:07:34.499Z,29.46
2018-07-19T12:10:36.488Z,29.86
2018-07-19T12:13:38.566Z,29.70
2018-07-19T12:16:40.666Z,29.64
2018-07-19T12:19:42.785Z,29.64
2018-07-19T12:22:44.809Z,29.56
2018-07-19T12:25:46.959Z,29.58
2018-07-19T12:28:48.931Z,29.90
2018-07-19T12:31:51.037Z,30.01
2018-07-19T12:34:53.143Z,29.58
2018-07-19T12:37:55.174Z,29.54
2018-07-19T12:40:58.439Z,29.90
2018-07-19T12:44:08.975Z,29.91
2018-07-19T12:47:11.083Z,30.22
2018-07-19T12:50:13.496Z,30.39
2018-07-19T12:53:15.607Z,30.43
2018-07-19T12:56:17.691Z,30.61
2018-07-19T12:59:19.751Z,30.73
2018-07-19T13:02:21.932Z,30.74
2018-07-19T13:05:25.085Z,30.75
2018-07-19T13:08:28.086Z,30.71
2018-07-19T13:11:30.244Z,30.71
2018-07-19T13:14:32.545Z,30.92
2018-07-19T13:17:34.748Z,30.63
2018-07-19T13:20:36.794Z,30.97
2018-07-19T13:23:38.921Z,31.03
2018-07-19T13:26:40.973Z,31.08
2018-07-19T13:29:43.023Z,31.17
2018-07-19T13:32:45.082Z,30.57
2018-07-19T13:35:47.135Z,30.49
2018-07-19T13:38:49.103Z,30.25
2018-07-19T13:41:51.160Z,30.26
2018-07-19T13:44:53.298Z,30.48
2018-07-19T13:47:55.626Z,30.48
2018-07-19T13:50:59.131Z,30.27
2018-07-19T13:54:15.271Z,30.42
2018-07-19T13:57:17.438Z,30.50
2018-07-19T14:00:19.669Z,30.37
2018-07-19T14:03:22.319Z,30.83
2018-07-19T14:06:24.938Z,31.25
2018-07-19T14:09:26.955Z,31.62
2018-07-19T14:12:30.090Z,31.77
2018-07-19T14:15:32.270Z,31.94
2018-07-19T14:18:34.518Z,31.99
2018-07-19T14:21:36.653Z,31.76
2018-07-19T14:24:39.008Z,31.87
2018-07-19T14:27:40.974Z,31.91
2018-07-19T14:30:43.036Z,31.90
2018-07-19T14:33:47.132Z,31.76
2018-07-19T14:36:49.199Z,31.79
2018-07-19T14:39:51.435Z,31.14
2018-07-19T14:42:54.308Z,30.72
2018-07-19T14:45:56.536Z,30.82
2018-07-19T14:48:59.641Z,30.74
2018-07-19T14:52:01.828Z,30.35
2018-07-19T14:55:04.651Z,30.23
2018-07-19T14:58:07.283Z,30.39
2018-07-19T15:01:09.417Z,30.48
2018-07-19T15:04:11.472Z,30.28
2018-07-19T15:07:13.701Z,30.37
2018-07-19T15:10:15.828Z,30.53
2018-07-19T15:13:17.963Z,30.55
2018-07-19T15:16:20.006Z,30.46
2018-07-19T15:19:22.081Z,30.56
2018-07-19T15:22:24.160Z,30.79
2018-07-19T15:25:26.124Z,31.06
2018-07-19T15:28:29.347Z,30.86
2018-07-19T15:31:31.589Z,31.15
2018-07-19T15:34:33.768Z,31.13
2018-07-19T15:37:35.862Z,31.21
2018-07-19T15:40:37.877Z,31.26
2018-07-19T15:43:40.027Z,31.14
2018-07-19T15:46:42.212Z,31.09
2018-07-19T15:49:44.286Z,31.09
2018-07-19T15:52:46.254Z,30.89
2018-07-19T15:55:48.348Z,31.05
2018-07-19T15:58:50.461Z,30.99
2018-07-19T16:01:52.518Z,30.84
2018-07-19T16:04:54.707Z,30.82
2018-07-19T16:07:56.756Z,30.88
2018-07-19T16:11:00.260Z,30.97
2018-07-19T16:14:02.561Z,31.07
2018-07-19T16:17:05.016Z,31.07
2018-07-19T16:20:07.073Z,31.19
2018-07-19T16:23:09.292Z,31.37
2018-07-19T16:26:11.431Z,31.39
2018-07-19T16:29:13.391Z,31.50
2018-07-19T16:32:17.526Z,31.14
2018-07-19T16:35:19.627Z,31.19
2018-07-19T16:38:21.700Z,31.18
2018-07-19T16:41:25.920Z,31.17
2018-07-19T16:44:28.927Z,31.05
2018-07-19T16:47:31.021Z,30.90
2018-07-19T16:50:33.293Z,30.66
2018-07-19T16:53:35.710Z,30.58
2018-07-19T16:56:37.895Z,30.62
2018-07-19T16:59:40.058Z,30.54
2018-07-19T17:02:42.494Z,30.57
2018-07-19T17:05:45.888Z,30.42
2018-07-19T17:08:48.337Z,30.39
2018-07-19T17:11:51.106Z,30.48
2018-07-19T17:14:53.279Z,30.49
2018-07-19T17:17:56.739Z,30.44
2018-07-19T17:21:00.174Z,30.55
2018-07-19T17:24:03.252Z,30.44
2018-07-19T17:27:05.405Z,30.34
2018-07-19T17:30:08.669Z,30.26
2018-07-19T17:33:10.753Z,30.24
2018-07-19T17:36:12.951Z,30.09
2018-07-19T17:39:15.163Z,29.85
2018-07-19T17:42:17.484Z,29.70
2018-07-19T17:45:19.727Z,29.57
2018-07-19T17:48:21.821Z,29.51
2018-07-19T17:51:23.911Z,29.49
2018-07-19T17:54:26.101Z,29.34
2018-07-19T17:57:28.263Z,29.28
2018-07-19T18:00:30.295Z,29.21
2018-07-19T18:03:32.947Z,29.21
2018-07-19T18:06:35.222Z,29.12
2018-07-19T18:09:37.329Z,28.98
2018-07-19T18:12:39.593Z,28.94
2018-07-19T18:15:41.627Z,28.90
2018-07-19T18:18:43.627Z,28.89
2018-07-19T18:21:45.732Z,28.78
2018-07-19T18:24:47.782Z,28.72
2018-07-19T18:27:49.964Z,28.69
2018-07-19T18:30:52.027Z,28.69
2018-07-19T18:33:54.072Z,28.69
2018-07-19T18:36:56.380Z,28.67
2018-07-19T18:39:58.528Z,28.60
2018-07-19T18:43:00.650Z,28.54
2018-07-19T18:46:04.012Z,28.51
2018-07-19T18:49:06.196Z,28.48
2018-07-19T18:52:08.791Z,28.38
2018-07-19T18:55:10.916Z,28.32
2018-07-19T18:58:13.055Z,28.25
2018-07-19T19:01:15.229Z,28.22
2018-07-19T19:04:17.304Z,28.19
2018-07-19T19:07:19.616Z,28.14
2018-07-19T19:10:21.599Z,28.06
2018-07-19T19:13:23.907Z,28.00
2018-07-19T19:16:26.144Z,27.88
2018-07-19T19:19:28.386Z,27.84
2018-07-19T19:22:30.663Z,27.83
2018-07-19T19:25:32.812Z,27.79
2018-07-19T19:28:35.032Z,27.73
2018-07-19T19:31:37.251Z,27.67
2018-07-19T19:34:39.432Z,27.57
2018-07-19T19:37:42.545Z,27.46
2018-07-19T19:40:44.717Z,27.37
2018-07-19T19:43:46.805Z,27.31
2018-07-19T19:46:48.945Z,27.23
2018-07-19T19:49:50.956Z,27.22
2018-07-19T19:52:53.127Z,27.15
2018-07-19T19:55:56.306Z,27.06
2018-07-19T19:58:58.368Z,26.98
2018-07-19T20:02:00.420Z,26.90
2018-07-19T20:05:02.932Z,26.88
2018-07-19T20:08:05.097Z,26.86
2018-07-19T20:11:07.195Z,26.81
2018-07-19T20:14:09.377Z,26.63
2018-07-19T20:17:11.531Z,26.44
2018-07-19T20:20:13.524Z,26.33
2018-07-19T20:23:15.846Z,26.24
2018-07-19T20:26:18.076Z,26.10
2018-07-19T20:29:20.180Z,25.96
2018-07-19T20:32:22.511Z,25.85
2018-07-19T20:35:24.755Z,25.70
2018-07-19T20:38:26.920Z,25.66
2018-07-19T20:41:29.243Z,25.57
2018-07-19T20:44:31.391Z,25.44
2018-07-19T20:47:33.751Z,25.37
2018-07-19T20:50:35.802Z,25.25
2018-07-19T20:53:38.067Z,25.08
2018-07-19T20:56:40.138Z,24.95
2018-07-19T20:59:42.164Z,24.89
2018-07-19T21:02:44.285Z,24.86
2018-07-19T21:05:46.431Z,24.76
2018-07-19T21:08:48.809Z,24.73
2018-07-19T21:11:50.877Z,24.65
2018-07-19T21:14:52.937Z,24.60
2018-07-19T21:17:56.036Z,24.56
2018-07-19T21:20:58.132Z,24.63
2018-07-19T21:24:00.275Z,24.72
2018-07-19T21:27:02.378Z,24.71
2018-07-19T21:30:05.781Z,24.65
2018-07-19T21:33:07.799Z,24.59
2018-07-19T21:36:09.925Z,24.51
2018-07-19T21:39:12.223Z,24.32
2018-07-19T21:42:14.336Z,24.28
2018-07-19T21:45:16.543Z,24.17
2018-07-19T21:48:18.800Z,24.19
2018-07-19T21:51:21.151Z,24.21
2018-07-19T21:54:23.310Z,24.15
2018-07-19T21:57:25.425Z,23.91
2018-07-19T22:00:29.756Z,23.85
2018-07-19T22:03:32.213Z,23.80
2018-07-19T22:06:36.255Z,23.75
2018-07-19T22:09:38.428Z,23.74
2018-07-19T22:12:40.557Z,23.60
2018-07-19T22:15:42.618Z,23.43
2018-07-19T22:18:48.032Z,23.40
2018-07-19T22:21:49.992Z,23.36
2018-07-19T22:24:52.118Z,23.34
2018-07-19T22:27:54.291Z,23.21
2018-07-19T22:30:56.355Z,23.07
2018-07-19T22:33:58.525Z,23.07
2018-07-19T22:37:00.579Z,22.99
2018-07-19T22:40:03.528Z,22.84
2018-07-19T22:43:06.544Z,22.72
2018-07-19T22:46:08.780Z,22.74
2018-07-19T22:49:10.816Z,22.84
2018-07-19T22:52:12.860Z,22.86
2018-07-19T22:55:14.991Z,22.95
2018-07-19T22:58:17.002Z,22.98
2018-07-19T23:01:19.124Z,22.87
2018-07-19T23:04:21.156Z,22.79
2018-07-19T23:07:23.237Z,22.79
2018-07-19T23:20:42.896Z,22.32
2018-07-19T23:23:44.942Z,22.33
2018-07-19T23:33:38.355Z,22.03
2018-07-19T23:36:45.047Z,22.04
2018-07-19T23:39:51.319Z,22.13
2018-07-19T23:42:56.858Z,22.05
2018-07-19T23:46:06.820Z,22.03
2018-07-19T23:49:08.885Z,22.08
2018-07-19T23:52:10.957Z,21.97
2018-07-19T23:55:13.018Z,21.96
2018-07-19T23:58:15.148Z,21.97
